SWA490 KMHT-KBWI
Flight info
| Callsign | SWA490 |
|---|---|
| Flight time | 0h 59m |
| Altitude | 28000 |
| Route | PPORT4 CCC TOPRR Q167 ZIZZI KNUKK ATR LAFLN MIIDY3 |
| Aircraft | B737/M-SDE2E3GIJ4RWZ/LB1D1 |
Departure
| Time | 2026-04-27 20:00 |
|---|---|
| Airport | Manchester-Boston Regional Airport (KMHT) |
Arrival
| Time | 2026-04-27 21:00 |
|---|---|
| Airport | Baltimore/Washington International Thurgood Marshall Airport (KBWI) |
| Time | Latitude | Longitude | Altitude | Speed | Heading |
|---|---|---|---|---|---|
| 2026-04-27 19:00 | 42.92835 | -71.43675 | 231 ft | 0 kts | 246° |
| 2026-04-27 19:44 | 42.92841 | -71.43657 | 231 ft | 4 kts | 229° |
| 2026-04-27 19:44 | 42.92861 | -71.43647 | 234 ft | 4 kts | 153° |
| 2026-04-27 19:44 | 42.92882 | -71.43662 | 232 ft | 4 kts | 197° |
| 2026-04-27 19:45 | 42.92891 | -71.43643 | 231 ft | 4 kts | 266° |
| 2026-04-27 19:45 | 42.92884 | -71.43611 | 234 ft | 4 kts | 315° |
| 2026-04-27 19:45 | 42.92863 | -71.43592 | 232 ft | 4 kts | 336° |
| 2026-04-27 19:45 | 42.92839 | -71.43578 | 234 ft | 2 kts | 336° |
| 2026-04-27 19:46 | 42.92837 | -71.43577 | 234 ft | 0 kts | 336° |
| 2026-04-27 19:49 | 42.92839 | -71.43578 | 234 ft | 1 kts | 336° |
| 2026-04-27 19:49 | 42.92863 | -71.43586 | 232 ft | 5 kts | 358° |
| 2026-04-27 19:49 | 42.92896 | -71.43562 | 231 ft | 6 kts | 50° |
| 2026-04-27 19:49 | 42.92913 | -71.43514 | 233 ft | 6 kts | 68° |
| 2026-04-27 19:50 | 42.92928 | -71.43466 | 234 ft | 6 kts | 66° |
| 2026-04-27 19:50 | 42.92946 | -71.43420 | 235 ft | 6 kts | 50° |
| 2026-04-27 19:50 | 42.92983 | -71.43413 | 236 ft | 6 kts | 341° |
| 2026-04-27 19:50 | 42.93036 | -71.43445 | 236 ft | 11 kts | 336° |
| 2026-04-27 19:51 | 42.93119 | -71.43495 | 232 ft | 14 kts | 337° |
| 2026-04-27 19:51 | 42.93208 | -71.43546 | 234 ft | 14 kts | 336° |
| 2026-04-27 19:51 | 42.93293 | -71.43597 | 231 ft | 13 kts | 336° |
| 2026-04-27 19:51 | 42.93373 | -71.43645 | 231 ft | 11 kts | 336° |
| 2026-04-27 19:52 | 42.93433 | -71.43650 | 231 ft | 9 kts | 37° |
| 2026-04-27 19:52 | 42.93460 | -71.43576 | 231 ft | 9 kts | 59° |
| 2026-04-27 19:52 | 42.93513 | -71.43564 | 232 ft | 9 kts | 337° |
| 2026-04-27 19:52 | 42.93575 | -71.43600 | 229 ft | 12 kts | 336° |
| 2026-04-27 19:53 | 42.93778 | -71.43719 | 225 ft | 17 kts | 337° |
| 2026-04-27 19:53 | 42.93885 | -71.43783 | 224 ft | 17 kts | 336° |
| 2026-04-27 19:53 | 42.93988 | -71.43844 | 222 ft | 15 kts | 336° |
| 2026-04-27 19:54 | 42.94076 | -71.43896 | 223 ft | 13 kts | 340° |
| 2026-04-27 19:54 | 42.94152 | -71.43918 | 221 ft | 9 kts | 352° |
| 2026-04-27 19:54 | 42.94151 | -71.43944 | 221 ft | 4 kts | 167° |
| 2026-04-27 19:54 | 42.94132 | -71.43929 | 221 ft | 0 kts | 157° |
| 2026-04-27 19:59 | 42.94010 | -71.43858 | 222 ft | 52 kts | 156° |
| 2026-04-27 19:59 | 42.93467 | -71.43536 | 231 ft | 116 kts | 156° |
| 2026-04-27 20:00 | 42.92580 | -71.43018 | 360 ft | 154 kts | 156° |
| 2026-04-27 20:00 | 42.91575 | -71.42463 | 1040 ft | 156 kts | 160° |
| 2026-04-27 20:00 | 42.90434 | -71.42438 | 1800 ft | 181 kts | 196° |
| 2026-04-27 20:00 | 42.89141 | -71.43101 | 2299 ft | 214 kts | 199° |
| 2026-04-27 20:01 | 42.87673 | -71.43922 | 2714 ft | 236 kts | 201° |
| 2026-04-27 20:01 | 42.86136 | -71.44842 | 2914 ft | 246 kts | 202° |
| 2026-04-27 20:01 | 42.84584 | -71.45796 | 2970 ft | 244 kts | 202° |
| 2026-04-27 20:01 | 42.83034 | -71.46745 | 2979 ft | 245 kts | 201° |
| 2026-04-27 20:02 | 42.81491 | -71.47654 | 2986 ft | 246 kts | 201° |
| 2026-04-27 20:02 | 42.79936 | -71.48600 | 3095 ft | 241 kts | 201° |
| 2026-04-27 20:02 | 42.78417 | -71.49481 | 3373 ft | 234 kts | 201° |
| 2026-04-27 20:02 | 42.76916 | -71.50396 | 3881 ft | 240 kts | 201° |
| 2026-04-27 20:03 | 42.75355 | -71.51306 | 4587 ft | 247 kts | 201° |
| 2026-04-27 20:03 | 42.73746 | -71.52284 | 5275 ft | 261 kts | 203° |
| 2026-04-27 20:03 | 42.72046 | -71.53373 | 5936 ft | 277 kts | 204° |
| 2026-04-27 20:03 | 42.70294 | -71.54559 | 6796 ft | 285 kts | 206° |
| 2026-04-27 20:04 | 42.68511 | -71.55791 | 7712 ft | 289 kts | 206° |
| 2026-04-27 20:04 | 42.66691 | -71.56983 | 8669 ft | 293 kts | 204° |
| 2026-04-27 20:04 | 42.64821 | -71.58145 | 9623 ft | 298 kts | 203° |
| 2026-04-27 20:04 | 42.62904 | -71.59301 | 10435 ft | 307 kts | 202° |
| 2026-04-27 20:05 | 42.60866 | -71.60527 | 10708 ft | 335 kts | 203° |
| 2026-04-27 20:05 | 42.58660 | -71.61880 | 11002 ft | 358 kts | 204° |
| 2026-04-27 20:05 | 42.56376 | -71.63316 | 11714 ft | 366 kts | 205° |
| 2026-04-27 20:05 | 42.54066 | -71.64814 | 12584 ft | 370 kts | 206° |
| 2026-04-27 20:06 | 42.51751 | -71.66364 | 13489 ft | 373 kts | 207° |
| 2026-04-27 20:06 | 42.49423 | -71.67977 | 14327 ft | 378 kts | 208° |
| 2026-04-27 20:06 | 42.47080 | -71.69649 | 15076 ft | 384 kts | 208° |
| 2026-04-27 20:06 | 42.44713 | -71.71383 | 15840 ft | 390 kts | 210° |
| 2026-04-27 20:07 | 42.42320 | -71.73180 | 16602 ft | 396 kts | 210° |
| 2026-04-27 20:07 | 42.39900 | -71.75034 | 17367 ft | 402 kts | 211° |
| 2026-04-27 20:07 | 42.37454 | -71.76934 | 18124 ft | 408 kts | 212° |
| 2026-04-27 20:07 | 42.34983 | -71.78879 | 18826 ft | 414 kts | 212° |
| 2026-04-27 20:08 | 42.32479 | -71.80851 | 19476 ft | 419 kts | 212° |
| 2026-04-27 20:08 | 42.29930 | -71.82820 | 20136 ft | 425 kts | 212° |
| 2026-04-27 20:08 | 42.27342 | -71.84779 | 20773 ft | 430 kts | 211° |
| 2026-04-27 20:08 | 42.24707 | -71.86754 | 21404 ft | 435 kts | 211° |
| 2026-04-27 20:09 | 42.22046 | -71.88743 | 22032 ft | 440 kts | 211° |
| 2026-04-27 20:09 | 42.19346 | -71.90744 | 22662 ft | 445 kts | 211° |
| 2026-04-27 20:09 | 42.16612 | -71.92744 | 23268 ft | 450 kts | 211° |
| 2026-04-27 20:09 | 42.13841 | -71.94755 | 23856 ft | 455 kts | 211° |
| 2026-04-27 20:10 | 42.11039 | -71.96785 | 24346 ft | 459 kts | 212° |
| 2026-04-27 20:10 | 42.08242 | -71.98883 | 24890 ft | 461 kts | 213° |
| 2026-04-27 20:10 | 42.05459 | -72.01050 | 25421 ft | 463 kts | 214° |
| 2026-04-27 20:10 | 42.02701 | -72.03313 | 25930 ft | 465 kts | 216° |
| 2026-04-27 20:11 | 41.99946 | -72.05618 | 26415 ft | 469 kts | 216° |
| 2026-04-27 20:11 | 41.97167 | -72.07950 | 26881 ft | 472 kts | 216° |
| 2026-04-27 20:11 | 41.94375 | -72.10301 | 27343 ft | 475 kts | 217° |
| 2026-04-27 20:11 | 41.91582 | -72.12681 | 27890 ft | 475 kts | 217° |
| 2026-04-27 20:12 | 41.88812 | -72.15110 | 28282 ft | 477 kts | 218° |
| 2026-04-27 20:12 | 41.86964 | -72.16721 | 28222 ft | 478 kts | 216° |
| 2026-04-27 20:12 | 41.80118 | -72.21552 | 28254 ft | 474 kts | 211° |
| 2026-04-27 20:13 | 41.74214 | -72.25441 | 28257 ft | 477 kts | 211° |
| 2026-04-27 20:13 | 41.68270 | -72.29412 | 28255 ft | 478 kts | 211° |
| 2026-04-27 20:14 | 41.62333 | -72.33426 | 28249 ft | 478 kts | 212° |
| 2026-04-27 20:14 | 41.56412 | -72.37439 | 28260 ft | 477 kts | 212° |
| 2026-04-27 20:15 | 41.50492 | -72.41441 | 28259 ft | 476 kts | 212° |
| 2026-04-27 20:15 | 41.44584 | -72.45425 | 28267 ft | 476 kts | 212° |
| 2026-04-27 20:16 | 41.38668 | -72.49405 | 28266 ft | 476 kts | 212° |
| 2026-04-27 20:16 | 41.32750 | -72.53378 | 28266 ft | 477 kts | 212° |
| 2026-04-27 20:17 | 41.26820 | -72.57351 | 28268 ft | 477 kts | 212° |
| 2026-04-27 20:17 | 41.21883 | -72.60653 | 28268 ft | 478 kts | 212° |
| 2026-04-27 20:18 | 41.14845 | -72.65357 | 28290 ft | 493 kts | 212° |
| 2026-04-27 20:18 | 41.08682 | -72.69460 | 28273 ft | 496 kts | 212° |
| 2026-04-27 20:19 | 41.02520 | -72.73548 | 28276 ft | 495 kts | 212° |
| 2026-04-27 20:19 | 40.96375 | -72.77624 | 28276 ft | 493 kts | 212° |
| 2026-04-27 20:20 | 40.90256 | -72.81706 | 28281 ft | 491 kts | 213° |
| 2026-04-27 20:20 | 40.84209 | -72.85895 | 28283 ft | 490 kts | 213° |
| 2026-04-27 20:21 | 40.78185 | -72.90098 | 28282 ft | 490 kts | 213° |
| 2026-04-27 20:21 | 40.72151 | -72.94279 | 28293 ft | 490 kts | 213° |
| 2026-04-27 20:22 | 40.66111 | -72.98441 | 28275 ft | 490 kts | 213° |
| 2026-04-27 20:22 | 40.60064 | -73.02596 | 28276 ft | 490 kts | 213° |
| 2026-04-27 20:23 | 40.54056 | -73.06716 | 28281 ft | 490 kts | 213° |
| 2026-04-27 20:23 | 40.48008 | -73.10856 | 28289 ft | 490 kts | 213° |
| 2026-04-27 20:24 | 40.41893 | -73.15040 | 28294 ft | 502 kts | 213° |
| 2026-04-27 20:24 | 40.35681 | -73.19276 | 28280 ft | 503 kts | 213° |
| 2026-04-27 20:25 | 40.30520 | -73.22783 | 28281 ft | 502 kts | 213° |
| 2026-04-27 20:25 | 40.24320 | -73.26990 | 28281 ft | 501 kts | 213° |
| 2026-04-27 20:26 | 40.18125 | -73.31189 | 28284 ft | 501 kts | 213° |
| 2026-04-27 20:26 | 40.11941 | -73.35372 | 28281 ft | 500 kts | 213° |
| 2026-04-27 20:27 | 40.05757 | -73.39547 | 28283 ft | 500 kts | 213° |
| 2026-04-27 20:27 | 39.99575 | -73.43711 | 28282 ft | 500 kts | 213° |
| 2026-04-27 20:28 | 39.93390 | -73.47870 | 28285 ft | 500 kts | 213° |
| 2026-04-27 20:28 | 39.88256 | -73.51316 | 28281 ft | 500 kts | 213° |
| 2026-04-27 20:29 | 39.81537 | -73.56972 | 28291 ft | 485 kts | 228° |
| 2026-04-27 20:29 | 39.76454 | -73.62733 | 28270 ft | 485 kts | 229° |
| 2026-04-27 20:30 | 39.71365 | -73.68481 | 28278 ft | 485 kts | 228° |
| 2026-04-27 20:30 | 39.66241 | -73.74172 | 28278 ft | 485 kts | 227° |
| 2026-04-27 20:31 | 39.61101 | -73.79839 | 28278 ft | 485 kts | 227° |
| 2026-04-27 20:31 | 39.55964 | -73.85492 | 28279 ft | 484 kts | 227° |
| 2026-04-27 20:32 | 39.50834 | -73.91132 | 28285 ft | 484 kts | 227° |
| 2026-04-27 20:32 | 39.45701 | -73.96768 | 28281 ft | 483 kts | 227° |
| 2026-04-27 20:33 | 39.40609 | -74.02345 | 28287 ft | 483 kts | 227° |
| 2026-04-27 20:33 | 39.35483 | -74.07954 | 28285 ft | 483 kts | 227° |
| 2026-04-27 20:34 | 39.30360 | -74.13555 | 28295 ft | 482 kts | 227° |
| 2026-04-27 20:34 | 39.25239 | -74.19146 | 28292 ft | 482 kts | 227° |
| 2026-04-27 20:35 | 39.20114 | -74.24728 | 28285 ft | 482 kts | 227° |
| 2026-04-27 20:35 | 39.14992 | -74.30296 | 28286 ft | 482 kts | 227° |
| 2026-04-27 20:36 | 39.09867 | -74.35856 | 28286 ft | 481 kts | 227° |
| 2026-04-27 20:36 | 39.04747 | -74.41402 | 28291 ft | 481 kts | 227° |
| 2026-04-27 20:37 | 38.99629 | -74.46934 | 28291 ft | 480 kts | 227° |
| 2026-04-27 20:37 | 38.95086 | -74.53004 | 28275 ft | 462 kts | 244° |
| 2026-04-27 20:38 | 38.92501 | -74.60336 | 28272 ft | 443 kts | 263° |
| 2026-04-27 20:38 | 38.91793 | -74.64181 | 28163 ft | 444 kts | 264° |
| 2026-04-27 20:38 | 38.91092 | -74.68051 | 28033 ft | 446 kts | 263° |
| 2026-04-27 20:39 | 38.90355 | -74.71927 | 27902 ft | 448 kts | 263° |
| 2026-04-27 20:39 | 38.89590 | -74.75808 | 27767 ft | 448 kts | 262° |
| 2026-04-27 20:39 | 38.88834 | -74.79686 | 27635 ft | 447 kts | 263° |
| 2026-04-27 20:39 | 38.88103 | -74.83560 | 27497 ft | 447 kts | 263° |
| 2026-04-27 20:40 | 38.87380 | -74.87431 | 27374 ft | 446 kts | 263° |
| 2026-04-27 20:40 | 38.86657 | -74.91295 | 27188 ft | 443 kts | 263° |
| 2026-04-27 20:40 | 38.85940 | -74.95109 | 26915 ft | 437 kts | 262° |
| 2026-04-27 20:40 | 38.85226 | -74.98891 | 26667 ft | 436 kts | 262° |
| 2026-04-27 20:41 | 38.84512 | -75.02667 | 26414 ft | 435 kts | 262° |
| 2026-04-27 20:41 | 38.83796 | -75.06437 | 26165 ft | 435 kts | 262° |
| 2026-04-27 20:41 | 38.83079 | -75.10216 | 25613 ft | 437 kts | 262° |
| 2026-04-27 20:41 | 38.82361 | -75.13980 | 24989 ft | 433 kts | 262° |
| 2026-04-27 20:42 | 38.81647 | -75.17712 | 24369 ft | 429 kts | 261° |
| 2026-04-27 20:42 | 38.80983 | -75.21417 | 23697 ft | 423 kts | 265° |
| 2026-04-27 20:42 | 38.80662 | -75.25144 | 22881 ft | 419 kts | 270° |
| 2026-04-27 20:42 | 38.80455 | -75.28848 | 22208 ft | 415 kts | 270° |
| 2026-04-27 20:43 | 38.80256 | -75.32525 | 21553 ft | 412 kts | 270° |
| 2026-04-27 20:43 | 38.80048 | -75.36173 | 20920 ft | 409 kts | 270° |
| 2026-04-27 20:43 | 38.79830 | -75.39801 | 20305 ft | 407 kts | 269° |
| 2026-04-27 20:43 | 38.79605 | -75.43409 | 19687 ft | 405 kts | 269° |
| 2026-04-27 20:44 | 38.79376 | -75.47001 | 19081 ft | 404 kts | 269° |
| 2026-04-27 20:44 | 38.79146 | -75.50590 | 18429 ft | 404 kts | 269° |
| 2026-04-27 20:44 | 38.78916 | -75.54167 | 17663 ft | 400 kts | 269° |
| 2026-04-27 20:44 | 38.78687 | -75.57711 | 16830 ft | 397 kts | 268° |
| 2026-04-27 20:45 | 38.78463 | -75.61157 | 16271 ft | 388 kts | 268° |
| 2026-04-27 20:45 | 38.78240 | -75.64555 | 15577 ft | 376 kts | 268° |
| 2026-04-27 20:45 | 38.78025 | -75.67825 | 15009 ft | 362 kts | 268° |
| 2026-04-27 20:45 | 38.77818 | -75.70972 | 14552 ft | 347 kts | 268° |
| 2026-04-27 20:46 | 38.77617 | -75.74006 | 13911 ft | 340 kts | 268° |
| 2026-04-27 20:46 | 38.77421 | -75.76978 | 13354 ft | 330 kts | 268° |
| 2026-04-27 20:46 | 38.77230 | -75.79875 | 12796 ft | 322 kts | 268° |
| 2026-04-27 20:46 | 38.77045 | -75.82661 | 12451 ft | 307 kts | 268° |
| 2026-04-27 20:47 | 38.76864 | -75.85397 | 11866 ft | 306 kts | 268° |
| 2026-04-27 20:47 | 38.76686 | -75.88101 | 11395 ft | 301 kts | 268° |
| 2026-04-27 20:47 | 38.76513 | -75.90691 | 11257 ft | 286 kts | 268° |
| 2026-04-27 20:47 | 38.76345 | -75.93197 | 11121 ft | 279 kts | 269° |
| 2026-04-27 20:48 | 38.76180 | -75.95670 | 11011 ft | 280 kts | 269° |
| 2026-04-27 20:48 | 38.76014 | -75.98182 | 10880 ft | 287 kts | 268° |
| 2026-04-27 20:48 | 38.75841 | -76.00746 | 10706 ft | 290 kts | 268° |
| 2026-04-27 20:48 | 38.75666 | -76.03313 | 10550 ft | 289 kts | 268° |
| 2026-04-27 20:49 | 38.75593 | -76.05867 | 10368 ft | 285 kts | 281° |
| 2026-04-27 20:49 | 38.76208 | -76.08214 | 10214 ft | 274 kts | 302° |
| 2026-04-27 20:49 | 38.77204 | -76.10264 | 10071 ft | 270 kts | 305° |
| 2026-04-27 20:49 | 38.78227 | -76.12291 | 9986 ft | 269 kts | 306° |
| 2026-04-27 20:50 | 38.79255 | -76.14321 | 9528 ft | 274 kts | 305° |
| 2026-04-27 20:50 | 38.80277 | -76.16362 | 9206 ft | 273 kts | 305° |
| 2026-04-27 20:50 | 38.81300 | -76.18409 | 8870 ft | 272 kts | 304° |
| 2026-04-27 20:50 | 38.82315 | -76.20443 | 8561 ft | 269 kts | 305° |
| 2026-04-27 20:51 | 38.83320 | -76.22453 | 8255 ft | 266 kts | 304° |
| 2026-04-27 20:51 | 38.84318 | -76.24449 | 7983 ft | 267 kts | 304° |
| 2026-04-27 20:51 | 38.85320 | -76.26453 | 7686 ft | 267 kts | 304° |
| 2026-04-27 20:51 | 38.86325 | -76.28465 | 7393 ft | 267 kts | 304° |
| 2026-04-27 20:52 | 38.87320 | -76.30434 | 7085 ft | 258 kts | 306° |
| 2026-04-27 20:52 | 38.88333 | -76.32291 | 6806 ft | 250 kts | 307° |
| 2026-04-27 20:52 | 38.89332 | -76.34086 | 6520 ft | 243 kts | 307° |
| 2026-04-27 20:52 | 38.90300 | -76.35831 | 6249 ft | 237 kts | 307° |
| 2026-04-27 20:53 | 38.91240 | -76.37534 | 5985 ft | 231 kts | 307° |
| 2026-04-27 20:53 | 38.92153 | -76.39193 | 5730 ft | 224 kts | 307° |
| 2026-04-27 20:53 | 38.93041 | -76.40809 | 5489 ft | 220 kts | 307° |
| 2026-04-27 20:53 | 38.93921 | -76.42412 | 5269 ft | 219 kts | 307° |
| 2026-04-27 20:54 | 38.95762 | -76.45507 | 4792 ft | 217 kts | 314° |
| 2026-04-27 20:54 | 38.96768 | -76.46918 | 4554 ft | 216 kts | 314° |
| 2026-04-27 20:54 | 38.97786 | -76.48341 | 4344 ft | 217 kts | 314° |
| 2026-04-27 20:55 | 38.98828 | -76.49765 | 4131 ft | 220 kts | 320° |
| 2026-04-27 20:55 | 38.99998 | -76.50968 | 4025 ft | 209 kts | 325° |
| 2026-04-27 20:55 | 39.01145 | -76.52030 | 3865 ft | 200 kts | 326° |
| 2026-04-27 20:55 | 39.02265 | -76.53064 | 3616 ft | 197 kts | 326° |
| 2026-04-27 20:56 | 39.03379 | -76.54098 | 3358 ft | 198 kts | 326° |
| 2026-04-27 20:56 | 39.04489 | -76.55131 | 3084 ft | 195 kts | 325° |
| 2026-04-27 20:56 | 39.05574 | -76.56142 | 2826 ft | 191 kts | 325° |
| 2026-04-27 20:56 | 39.06645 | -76.57140 | 2577 ft | 190 kts | 325° |
| 2026-04-27 20:57 | 39.07714 | -76.58135 | 2323 ft | 188 kts | 326° |
| 2026-04-27 20:57 | 39.08763 | -76.59111 | 2097 ft | 185 kts | 325° |
| 2026-04-27 20:57 | 39.09808 | -76.60085 | 1801 ft | 183 kts | 325° |
| 2026-04-27 20:57 | 39.10801 | -76.61010 | 1562 ft | 170 kts | 326° |
| 2026-04-27 20:58 | 39.11731 | -76.61876 | 1342 ft | 163 kts | 325° |
| 2026-04-27 20:58 | 39.12653 | -76.62734 | 1107 ft | 164 kts | 326° |
| 2026-04-27 20:58 | 39.13558 | -76.63575 | 938 ft | 161 kts | 326° |
| 2026-04-27 20:58 | 39.14456 | -76.64411 | 678 ft | 155 kts | 326° |
| 2026-04-27 20:59 | 39.15303 | -76.65197 | 459 ft | 146 kts | 326° |
| 2026-04-27 20:59 | 39.16105 | -76.65939 | 245 ft | 142 kts | 324° |
| 2026-04-27 20:59 | 39.16909 | -76.66690 | 147 ft | 131 kts | 324° |
| 2026-04-27 20:59 | 39.17472 | -76.67214 | 147 ft | 68 kts | 324° |
| 2026-04-27 21:00 | 39.17699 | -76.67423 | 143 ft | 19 kts | 324° |
| 2026-04-27 21:00 | 39.17763 | -76.67482 | 143 ft | 10 kts | 324° |
| 2026-04-27 21:00 | 39.17825 | -76.67483 | 143 ft | 10 kts | 48° |
| 2026-04-27 21:00 | 39.17851 | -76.67430 | 145 ft | 4 kts | 57° |
| 2026-04-27 21:01 | 39.17853 | -76.67427 | 145 ft | 0 kts | 57° |
| 2026-04-27 21:01 | 39.17855 | -76.67408 | 146 ft | 5 kts | 95° |
| 2026-04-27 21:02 | 39.17810 | -76.67354 | 148 ft | 14 kts | 142° |
| 2026-04-27 21:02 | 39.17709 | -76.67258 | 149 ft | 19 kts | 143° |
| 2026-04-27 21:02 | 39.17603 | -76.67158 | 150 ft | 19 kts | 143° |
| 2026-04-27 21:02 | 39.17521 | -76.67077 | 151 ft | 11 kts | 136° |
| 2026-04-27 21:03 | 39.17480 | -76.66994 | 152 ft | 11 kts | 112° |
| 2026-04-27 21:03 | 39.17468 | -76.66901 | 153 ft | 10 kts | 95° |
| 2026-04-27 21:03 | 39.17505 | -76.66833 | 154 ft | 10 kts | 30° |
| 2026-04-27 21:03 | 39.17558 | -76.66783 | 154 ft | 10 kts | 14° |
| 2026-04-27 21:04 | 39.17624 | -76.66776 | 154 ft | 9 kts | 3° |
| 2026-04-27 21:04 | 39.17683 | -76.66797 | 154 ft | 9 kts | 323° |
| 2026-04-27 21:04 | 39.17734 | -76.66846 | 154 ft | 9 kts | 323° |
| 2026-04-27 21:04 | 39.17764 | -76.66899 | 154 ft | 7 kts | 246° |
| 2026-04-27 21:05 | 39.17735 | -76.66943 | 154 ft | 1 kts | 234° |
| 2026-04-27 21:05 | 39.17734 | -76.66945 | 154 ft | 0 kts | 234° |